Clarion, IA

6:44 AM CST on November 20, 2017 (GMT -0600)
Clarion Municipal

Weather History for KCAV - November, 2013

Change the Weather History Date:

Tuesday, November 5, 2013

  Actual Average Record
Temperature  
Mean Temperature 34 °F -  
Max Temperature 42 °F 47 °F 75 °F (2001)
Min Temperature 26 °F 28 °F -4 °F (1951)
Degree Days  
Heating Degree Days 31    
Moisture  
Dew Point 36 °F    
Average Humidity 95    
Maximum Humidity 100    
Minimum Humidity 81    
Precipitation  
Precipitation 1.05 in - - ()
Sea Level Pressure  
Sea Level Pressure 30.03 in    
Wind  
Wind Speed 9 mph (NE)    
Max Wind Speed 29 mph    
Max Gust Speed 37 mph    
Visibility 5 miles    
Events Fog , Rain    
Averages and records for this station are not official NWS values.
T = Trace of Precipitation, MM = Missing Value Source: NWS Daily Summary

Daily Weather History Graph

Daily Weather History Graph

Search for Another Location

Airport or City:

Trip Planner

Search our weather history database for the weather conditions in past years. The results will help you decide how hot, cold, wet, or windy it might be!

Date:

Astronomy

Nov. 05, 2013 Rise Set
Actual Time 6:54 AM CST 5:02 PM CST
Civil Twilight 6:24 AM CST 5:31 PM CST
Nautical Twilight 5:51 AM CST 6:05 PM CST
Astronomical Twilight 5:18 AM CST 6:38 PM CST
Moon 9:12 AM CST (11/5) 7:02 PM CST (11/5)
Length of Visible Light 11h 07m
Length of Day
10h 07m
Waxing Crescent, 7% of the Moon is Illuminated
Nov 5
Waxing Crescent
Nov 9
First Quarter
Nov 17
Full
Nov 25
Last Quarter
Dec 2
New

Hourly Weather History & Observations

Time (CST) Temp. Windchill Dew Point Humidity Pressure Visibility Wind Dir Wind Speed Gust Speed Precip Events Conditions
12:15 AM 30.2 °F - 30.2 °F 100% 30.16 in 0.5 mi Calm Calm - N/A Fog Light Freezing Fog
12:35 AM 28.4 °F 24.6 °F 28.4 °F 100% 30.17 in 0.5 mi NE 3.5 mph - N/A   Mist
12:55 AM 26.6 °F 21.2 °F 26.6 °F 100% 30.17 in 0.2 mi NNE 4.6 mph - N/A Fog Light Freezing Fog
1:15 AM 28.4 °F 23.3 °F 28.4 °F 100% 30.17 in 0.2 mi North 4.6 mph - N/A Fog Light Freezing Fog
1:35 AM 28.4 °F 24.6 °F 28.4 °F 100% 30.17 in 0.2 mi North 3.5 mph - N/A Fog Light Freezing Fog
1:55 AM 28.4 °F 24.6 °F 28.4 °F 100% 30.17 in 0.5 mi North 3.5 mph - N/A   Mist
2:15 AM 28.4 °F - 28.4 °F 100% 30.18 in 4.0 mi Calm Calm - N/A   Clear
2:35 AM - - - N/A% 30.19 in 7.0 mi Calm Calm - N/A   Clear
2:55 AM 28.4 °F 24.6 °F 28.4 °F 100% 30.18 in 4.0 mi NNE 3.5 mph - N/A   Clear
3:15 AM 30.2 °F 25.4 °F 30.2 °F 100% 30.18 in 8.0 mi NNE 4.6 mph - N/A   Clear
3:35 AM 28.4 °F 23.3 °F 28.4 °F 100% 30.19 in 6.0 mi NE 4.6 mph - N/A   Clear
3:55 AM 28.4 °F 23.3 °F 28.4 °F 100% 30.18 in 7.0 mi ENE 4.6 mph - N/A   Clear
4:15 AM 28.4 °F 22.2 °F 28.4 °F 100% 30.19 in 9.0 mi ENE 5.8 mph - N/A   Clear
4:35 AM 28.4 °F 22.2 °F 28.4 °F 100% 30.18 in 10.0 mi ENE 5.8 mph - N/A   Clear
4:55 AM 30.2 °F 24.3 °F 28.4 °F 93% 30.18 in 10.0 mi ENE 5.8 mph - N/A   Scattered Clouds
5:15 AM 32.0 °F 26.4 °F 30.2 °F 93% 30.18 in 10.0 mi ENE 5.8 mph - N/A   Scattered Clouds
5:35 AM 32.0 °F 24.2 °F 30.2 °F 93% 30.17 in 10.0 mi NE 9.2 mph - N/A   Clear
5:55 AM 32.0 °F 26.4 °F 30.2 °F 93% 30.17 in 10.0 mi ENE 5.8 mph - N/A   Clear
6:15 AM 33.8 °F 27.0 °F 30.2 °F 87% 30.18 in 10.0 mi East 8.1 mph - N/A   Clear
6:35 AM 33.8 °F 26.4 °F 30.2 °F 87% 30.17 in 10.0 mi ENE 9.2 mph - N/A   Clear
6:55 AM 32.0 °F 23.6 °F 30.2 °F 93% 30.17 in 10.0 mi ENE 10.4 mph - N/A   Partly Cloudy
7:15 AM 33.8 °F 26.4 °F 30.2 °F 87% 30.17 in 10.0 mi East 9.2 mph - N/A   Partly Cloudy
7:35 AM 33.8 °F 26.4 °F 30.2 °F 87% 30.17 in 10.0 mi East 9.2 mph - N/A   Mostly Cloudy
7:55 AM 33.8 °F 25.8 °F 32.0 °F 93% 30.17 in 10.0 mi East 10.4 mph - N/A   Overcast
8:15 AM 35.6 °F 28.0 °F 32.0 °F 87% 30.17 in 10.0 mi East 10.4 mph - N/A   Overcast
8:35 AM 37.4 °F 30.3 °F 33.8 °F 87% 30.17 in 10.0 mi East 10.4 mph - N/A   Overcast
8:55 AM 37.4 °F 31.4 °F 33.8 °F 87% 30.18 in 10.0 mi East 8.1 mph - N/A   Overcast
9:15 AM 39.2 °F 32.5 °F 33.8 °F 81% 30.17 in 10.0 mi East 10.4 mph - N/A   Overcast
9:35 AM 39.2 °F 33.0 °F 35.6 °F 87% 30.16 in 10.0 mi East 9.2 mph - N/A   Overcast
9:55 AM 39.2 °F 32.0 °F 35.6 °F 87% 30.15 in 9.0 mi East 11.5 mph - N/A   Light Drizzle
10:15 AM 41.0 °F 33.5 °F 37.4 °F 87% 30.13 in 7.0 mi East 13.8 mph - N/A   Overcast
10:35 AM 41.0 °F 34.3 °F 39.2 °F 93% 30.13 in 6.0 mi ENE 11.5 mph 17.3 mph N/A   Overcast
10:55 AM 41.0 °F 33.9 °F 39.2 °F 93% 30.13 in 8.0 mi ENE 12.7 mph - N/A   Overcast
11:15 AM 41.0 °F 33.9 °F 39.2 °F 93% 30.12 in 5.0 mi East 12.7 mph - N/A Rain Light Rain
11:35 AM 41.0 °F 33.1 °F 39.2 °F 93% 30.09 in 5.0 mi ENE 15.0 mph - N/A Rain Light Rain
11:55 AM 41.0 °F 33.5 °F 39.2 °F 93% 30.07 in 6.0 mi ENE 13.8 mph 19.6 mph 0.01 in   Light Drizzle
12:15 PM 41.0 °F 32.8 °F 41.0 °F 100% 30.05 in 2.0 mi ENE 16.1 mph - N/A Rain Light Rain
12:35 PM 41.0 °F 32.8 °F 41.0 °F 100% 30.04 in 1.8 mi ENE 16.1 mph - N/A Rain Light Rain
12:55 PM 41.0 °F 32.8 °F 41.0 °F 100% 30.00 in 2.0 mi NE 16.1 mph - 0.09 in Rain Rain
1:15 PM 42.8 °F 34.8 °F 41.0 °F 93% 29.98 in 3.0 mi NE 17.3 mph - N/A Rain Light Rain
1:35 PM 42.8 °F 34.5 °F 41.0 °F 93% 29.97 in 1.5 mi NE 18.4 mph - N/A Rain Heavy Rain
1:55 PM 42.8 °F 35.1 °F 42.8 °F 100% 29.96 in 1.8 mi ENE 16.1 mph - 0.16 in Rain Heavy Rain
2:15 PM 42.8 °F 34.8 °F 42.8 °F 100% 29.96 in 2.0 mi NNE 17.3 mph - N/A Rain Heavy Rain
2:35 PM 42.8 °F 34.5 °F 42.8 °F 100% 29.96 in 1.5 mi NNE 18.4 mph - N/A Rain Heavy Rain
2:55 PM 42.8 °F 34.8 °F 41.0 °F 93% 29.94 in 1.8 mi NNE 17.3 mph 23.0 mph 0.22 in Rain Heavy Rain
3:15 PM 42.8 °F 35.1 °F 42.8 °F 100% 29.95 in 2.0 mi NNE 16.1 mph 24.2 mph N/A   Overcast
3:35 PM 42.8 °F 34.8 °F 41.0 °F 93% 29.95 in 2.0 mi NNE 17.3 mph - N/A Rain Heavy Rain
3:55 PM 41.0 °F 31.9 °F 41.0 °F 100% 29.92 in 2.5 mi NNE 19.6 mph - 0.15 in Rain Light Rain
4:15 PM 41.0 °F 31.9 °F 41.0 °F 100% 29.91 in 3.0 mi NE 19.6 mph - N/A Rain Rain
4:35 PM 42.8 °F 34.3 °F 41.0 °F 93% 29.90 in 3.0 mi NE 19.6 mph - N/A Rain Light Rain
4:55 PM 42.8 °F 33.8 °F 41.0 °F 93% 29.89 in 3.0 mi NE 21.9 mph 29.9 mph 0.08 in   Overcast
5:15 PM 42.8 °F 34.5 °F 41.0 °F 93% 29.88 in 3.0 mi NE 18.4 mph - N/A Rain Light Rain
5:35 PM 42.8 °F 32.5 °F 41.0 °F 93% 29.85 in 3.0 mi NE 28.8 mph 36.8 mph N/A   Overcast
5:55 PM 42.8 °F 35.4 °F 41.0 °F 93% 29.87 in 2.5 mi ENE 15.0 mph 32.2 mph 0.02 in   Overcast
6:15 PM 41.0 °F 31.9 °F 41.0 °F 100% 29.86 in 2.0 mi NE 19.6 mph - N/A Rain Light Rain
6:35 PM 41.0 °F 31.4 °F 41.0 °F 100% 29.85 in 2.0 mi NE 21.9 mph 29.9 mph N/A   Overcast
6:55 PM 41.0 °F 31.9 °F 41.0 °F 100% 29.84 in 2.5 mi NE 19.6 mph 28.8 mph 0.06 in Rain Light Rain
7:15 PM 41.0 °F 31.9 °F 41.0 °F 100% 29.84 in 3.0 mi NNE 19.6 mph 27.6 mph N/A   Overcast
7:35 PM 41.0 °F 31.9 °F 39.2 °F 93% 29.86 in 2.5 mi NNE 19.6 mph 26.5 mph N/A   Overcast
7:55 PM 39.2 °F 29.6 °F 39.2 °F 100% 29.85 in 2.5 mi NNE 19.6 mph 27.6 mph 0.13 in   Overcast
8:15 PM 39.2 °F 28.7 °F 39.2 °F 100% 29.83 in 3.0 mi NE 23.0 mph 29.9 mph N/A   Overcast
8:35 PM 39.2 °F 30.5 °F 39.2 °F 100% 29.85 in 3.0 mi North 16.1 mph 28.8 mph N/A   Overcast
8:55 PM 39.2 °F 29.8 °F 37.4 °F 93% 29.85 in 2.0 mi North 18.4 mph 25.3 mph 0.08 in   Overcast
9:15 PM 37.4 °F 26.9 °F 37.4 °F 100% 29.86 in 2.5 mi North 20.7 mph - N/A   Overcast
9:35 PM 37.4 °F 26.9 °F 35.6 °F 93% 29.85 in 5.0 mi NNE 20.7 mph 28.8 mph N/A   Overcast
9:55 PM 37.4 °F 26.6 °F 35.6 °F 93% 29.86 in 5.0 mi North 21.9 mph 28.8 mph 0.04 in Rain Light Rain
10:15 PM 37.4 °F 27.5 °F 35.6 °F 93% 29.87 in 10.0 mi North 18.4 mph 28.8 mph N/A   Overcast
10:35 PM 37.4 °F 26.9 °F 35.6 °F 93% 29.87 in 10.0 mi North 20.7 mph 27.6 mph N/A   Light Drizzle
10:55 PM 37.4 °F 27.2 °F 35.6 °F 93% 29.87 in 7.0 mi North 19.6 mph 28.8 mph N/A   Overcast
11:15 PM 35.6 °F 24.5 °F 35.6 °F 100% 29.88 in 4.0 mi North 20.7 mph 26.5 mph N/A   Overcast
11:35 PM 35.6 °F 24.2 °F 33.8 °F 93% 29.88 in 3.0 mi North 21.9 mph - N/A   Light Drizzle
11:55 PM 35.6 °F 24.8 °F 33.8 °F 93% 29.88 in 2.0 mi North 19.6 mph 27.6 mph 0.01 in   Light Drizzle